Time;durP1;ratioP1;P1;durP2;ratioP2;P2;SDS_P1;SDS_P2;PMS_P1;PMS_P2;Temp;Humidity;BMP_temperature;BMP_pressure;BME280_temperature;BME280_humidity;BME280_pressure;Samples;Min_cycle;Max_cycle;Signal;HPM_P1;HPM_P2
2022/12/15 05:33:15;;;;;;;75.03;34.58;;;;;;;-1.87;100.00;99517.16;5550393;32;34145;-88
2022/12/15 05:36:17;;;;;;;81.75;35.25;;;;;;;-1.81;100.00;99518.81;5564176;32;33653;-88
2022/12/15 05:39:21;;;;;;;73.60;34.55;;;;;;;-1.81;100.00;99532.66;5564238;32;34905;-88
2022/12/15 05:42:23;;;;;;;78.62;36.00;;;;;;;-1.77;100.00;99531.75;5564502;32;34465;-88
2022/12/15 05:45:27;;;;;;;76.22;34.63;;;;;;;-1.68;100.00;99530.78;5570655;32;34238;-88
2022/12/15 05:48:29;;;;;;;81.43;34.33;;;;;;;-1.67;100.00;99534.22;5566887;32;33962;-88
2022/12/15 05:51:33;;;;;;;77.97;33.25;;;;;;;-1.61;100.00;99546.31;5550136;32;32362;-88
2022/12/15 05:54:36;;;;;;;72.82;33.38;;;;;;;-1.64;100.00;99558.47;5565217;32;33659;-88
2022/12/15 05:57:38;;;;;;;74.40;33.90;;;;;;;-1.52;100.00;99569.59;5566453;32;33531;-88
2022/12/15 06:00:41;;;;;;;71.53;34.60;;;;;;;-1.34;100.00;99580.63;5559851;32;33738;-91
2022/12/15 06:03:45;;;;;;;77.18;34.58;;;;;;;-1.39;100.00;99586.78;5567195;32;35152;-91
2022/12/15 06:06:47;;;;;;;81.37;34.80;;;;;;;-1.37;100.00;99584.13;5563602;32;35055;-92
2022/12/15 06:09:50;;;;;;;70.43;32.33;;;;;;;-1.43;100.00;99603.31;5563409;32;34520;-88
2022/12/15 06:12:53;;;;;;;76.72;33.80;;;;;;;-1.12;100.00;99586.41;5564140;32;34554;-89
2022/12/15 06:15:57;;;;;;;77.72;33.00;;;;;;;-1.15;100.00;99602.91;5563932;32;34505;-88
2022/12/15 06:19:04;;;;;;;72.12;33.10;;;;;;;-1.26;100.00;99602.22;5563357;32;34982;-88
2022/12/15 06:22:06;;;;;;;74.57;33.63;;;;;;;-1.31;100.00;99619.63;5582277;32;34172;-89
2022/12/15 06:25:09;;;;;;;78.43;33.53;;;;;;;-1.39;100.00;99619.72;5579740;32;33883;-88
2022/12/15 06:28:12;;;;;;;73.20;32.40;;;;;;;-1.44;100.00;99613.72;5557967;32;33577;-88
2022/12/15 06:31:16;;;;;;;71.45;33.92;;;;;;;-1.38;100.00;99621.44;5554912;32;34215;-89
2022/12/15 06:34:21;;;;;;;86.32;34.88;;;;;;;-1.31;100.00;99624.84;5552772;32;35613;-89
2022/12/15 06:37:23;;;;;;;82.05;35.85;;;;;;;-1.39;100.00;99635.34;5542287;32;34997;-88
2022/12/15 06:40:26;;;;;;;82.15;33.97;;;;;;;-1.43;100.00;99636.25;5546268;32;33728;-88
2022/12/15 06:43:31;;;;;;;75.40;31.35;;;;;;;-1.44;100.00;99635.41;5551669;32;33725;-88
2022/12/15 06:46:35;;;;;;;81.20;34.30;;;;;;;-1.47;100.00;99632.00;5552170;32;33826;-88
2022/12/15 06:49:55;;;;;;;84.85;36.33;;;;;;;-1.47;100.00;99634.59;5531532;32;32472;-89
2022/12/15 06:52:58;;;;;;;90.35;36.47;;;;;;;-1.44;100.00;99639.75;5531874;32;33739;-88
2022/12/15 06:56:02;;;;;;;97.95;37.28;;;;;;;-1.36;100.00;99646.56;5532594;32;34179;-89
2022/12/15 07:02:43;;;;;;;81.65;33.42;;;;;;;-1.19;100.00;99671.53;2470867;29;20145;-89
2022/12/15 07:06:06;;;;;;;82.97;33.55;;;;;;;-1.12;100.00;99660.16;5544572;32;34441;-88
2022/12/15 07:12:59;;;;;;;90.18;36.30;;;;;;;-1.24;100.00;99666.41;2438742;26;20054;-89
2022/12/15 07:16:04;;;;;;;78.60;32.80;;;;;;;-1.08;100.00;99689.59;5523771;32;32504;-88
2022/12/15 07:19:10;;;;;;;81.60;34.22;;;;;;;-0.82;100.00;99672.75;5543277;32;34155;-89
2022/12/15 07:22:13;;;;;;;72.90;32.15;;;;;;;-0.75;100.00;99683.97;5561363;32;34135;-89
2022/12/15 07:25:16;;;;;;;89.93;34.53;;;;;;;-0.57;100.00;99703.66;5558756;32;34676;-88
2022/12/15 07:28:18;;;;;;;75.62;33.22;;;;;;;-0.60;100.00;99696.75;5560298;32;35036;-87
2022/12/15 07:31:27;;;;;;;78.32;34.47;;;;;;;-0.72;100.00;99696.94;5537877;32;32579;-88
2022/12/15 07:34:30;;;;;;;82.22;33.10;;;;;;;-0.69;100.00;99715.97;5568483;32;34136;-87
2022/12/15 07:37:33;;;;;;;85.65;35.08;;;;;;;-0.63;100.00;99701.16;5553531;32;34395;-86
2022/12/15 07:40:36;;;;;;;81.45;33.45;;;;;;;-0.62;100.00;99714.16;5540412;32;33783;-87
2022/12/15 07:58:52;;;;;;;79.25;34.38;;;;;;;-0.58;100.00;99708.03;5489209;32;20097;-89
2022/12/15 08:01:55;;;;;;;88.75;36.13;;;;;;;-0.45;100.00;99718.28;5514382;27;34472;-88
2022/12/15 08:04:58;;;;;;;89.65;34.92;;;;;;;-0.30;100.00;99732.81;5478756;32;33344;-88
2022/12/15 08:08:03;;;;;;;100.85;37.13;;;;;;;-0.24;100.00;99726.66;5490770;32;34341;-89
2022/12/15 08:11:09;;;;;;;86.37;37.53;;;;;;;-0.21;100.00;99727.44;5487081;32;33985;-90
2022/12/15 08:14:12;;;;;;;91.78;36.88;;;;;;;-0.05;100.00;99717.63;5493854;32;34138;-90
2022/12/15 08:17:20;;;;;;;85.87;36.92;;;;;;;0.02;100.00;99728.84;5498723;32;34951;-88
2022/12/15 08:20:22;;;;;;;86.60;37.38;;;;;;;0.05;100.00;99749.63;5494050;32;34382;-87
2022/12/15 08:23:25;;;;;;;80.38;36.05;;;;;;;-0.12;100.00;99751.66;5490737;32;34063;-88
2022/12/15 08:26:28;;;;;;;94.32;38.53;;;;;;;-0.03;100.00;99765.44;5483412;32;34006;-88
2022/12/15 08:29:33;;;;;;;88.32;39.45;;;;;;;0.09;100.00;99766.09;5476004;32;32686;-90
2022/12/15 08:32:53;;;;;;;90.70;39.50;;;;;;;0.05;100.00;99761.84;5497337;32;33947;-89
2022/12/15 08:36:02;;;;;;;87.22;38.17;;;;;;;0.12;100.00;99779.97;5482073;32;32428;-89
2022/12/15 08:39:13;;;;;;;86.90;39.05;;;;;;;0.12;100.00;99781.72;5497778;32;33991;-90
2022/12/15 08:42:16;;;;;;;89.45;38.58;;;;;;;0.19;100.00;99770.28;5500458;32;34824;-89
2022/12/15 08:45:19;;;;;;;97.07;41.88;;;;;;;0.35;100.00;99776.09;5483863;32;33420;-89
2022/12/15 08:48:22;;;;;;;98.47;41.28;;;;;;;0.22;100.00;99770.25;5490842;32;35139;-89
2022/12/15 08:51:28;;;;;;;87.37;40.20;;;;;;;0.17;100.00;99782.50;5492419;32;33947;-88
2022/12/15 08:54:31;;;;;;;96.18;41.65;;;;;;;0.25;100.00;99779.78;5494012;32;34063;-89
2022/12/15 08:57:33;;;;;;;96.20;41.63;;;;;;;0.25;100.00;99792.81;5492999;32;33786;-89
2022/12/15 09:00:36;;;;;;;89.57;40.63;;;;;;;0.40;100.00;99797.75;5490838;32;34060;-88
2022/12/15 09:03:39;;;;;;;89.62;38.72;;;;;;;0.42;100.00;99797.75;5493254;32;34154;-88
2022/12/15 09:06:42;;;;;;;89.32;38.58;;;;;;;0.31;100.00;99797.06;5494677;32;33702;-89
2022/12/15 09:09:51;;;;;;;81.15;37.58;;;;;;;0.48;100.00;99799.38;5517470;26;33694;-88
2022/12/15 09:12:55;;;;;;;82.25;37.72;;;;;;;0.40;100.00;99800.38;5492677;32;33777;-89
2022/12/15 09:16:05;;;;;;;89.68;36.40;;;;;;;0.54;100.00;99799.25;5492273;32;33709;-88
2022/12/15 09:19:12;;;;;;;91.18;36.38;;;;;;;0.67;100.00;99787.69;5477164;32;33124;-87
2022/12/15 09:22:15;;;;;;;89.80;36.47;;;;;;;0.65;100.00;99799.94;5487517;32;33545;-89
2022/12/15 09:25:18;;;;;;;84.53;35.60;;;;;;;0.55;100.00;99794.91;5500519;32;34091;-89
2022/12/15 09:28:20;;;;;;;82.93;35.72;;;;;;;0.72;100.00;99794.59;5491391;32;34945;-87
2022/12/15 09:31:28;;;;;;;76.93;34.67;;;;;;;0.76;100.00;99789.28;5486074;32;33870;-88
2022/12/15 09:34:32;;;;;;;79.93;35.30;;;;;;;0.79;100.00;99804.03;5490836;32;34465;-90
2022/12/15 09:37:34;;;;;;;85.93;36.00;;;;;;;0.99;100.00;99798.44;5489222;32;34496;-88
2022/12/15 09:40:37;;;;;;;84.82;34.63;;;;;;;1.19;100.00;99799.78;5484586;32;33805;-88
2022/12/15 09:43:54;;;;;;;86.55;34.67;;;;;;;1.06;100.00;99794.81;5486673;32;33558;-88
2022/12/15 09:47:26;;;;;;;78.68;35.17;;;;;;;0.82;100.00;99790.94;5476643;32;33430;-88
2022/12/15 09:50:34;;;;;;;102.40;37.30;;;;;;;1.26;100.00;99792.69;5474799;32;34041;-88
2022/12/15 09:53:37;;;;;;;90.30;35.70;;;;;;;1.44;100.00;99786.22;5494245;32;34427;-88
2022/12/15 09:57:06;;;;;;;81.93;34.90;;;;;;;1.56;100.00;99792.94;5503516;32;34733;-91
2022/12/15 10:00:20;;;;;;;92.28;35.03;;;;;;;1.76;100.00;99782.00;5491650;32;35173;-89
2022/12/15 10:03:31;;;;;;;96.12;36.70;;;;;;;1.57;100.00;99773.75;5478361;32;33124;-88
2022/12/15 10:07:05;;;;;;;94.40;36.90;;;;;;;1.53;100.00;99767.72;5477954;32;32727;-88
2022/12/15 10:10:18;;;;;;;91.18;36.15;;;;;;;1.80;100.00;99775.00;5492431;32;33945;-88
2022/12/15 10:13:32;;;;;;;89.00;36.40;;;;;;;1.64;100.00;99784.91;5493035;32;33860;-88
2022/12/15 10:17:00;;;;;;;83.68;35.63;;;;;;;1.62;100.00;99779.72;5506485;32;34708;-88
2022/12/15 10:20:16;;;;;;;83.22;35.72;;;;;;;1.79;100.00;99791.53;5503059;27;34347;-88
2022/12/15 10:23:19;;;;;;;84.10;35.15;;;;;;;1.51;100.00;99794.78;5475372;32;32474;-88
2022/12/15 10:26:31;;;;;;;89.37;36.47;;;;;;;1.38;100.00;99788.97;5480202;32;33973;-88
2022/12/15 10:29:50;;;;;;;88.35;36.00;;;;;;;1.40;100.00;99803.72;5469479;32;33341;-88
2022/12/15 10:33:14;;;;;;;79.87;35.38;;;;;;;1.31;100.00;99793.47;5458582;32;33474;-89
2022/12/15 10:36:17;;;;;;;87.22;35.00;;;;;;;1.43;100.00;99789.72;5460341;32;33999;-87
2022/12/15 10:39:22;;;;;;;87.55;36.03;;;;;;;1.55;100.00;99786.00;5475109;32;34185;-88
2022/12/15 10:42:26;;;;;;;89.90;36.00;;;;;;;1.66;100.00;99793.59;5471966;32;33606;-88
2022/12/15 10:45:37;;;;;;;83.57;34.92;;;;;;;1.68;100.00;99778.72;5472794;32;33845;-89
2022/12/15 10:48:42;;;;;;;79.15;34.50;;;;;;;1.69;100.00;99769.97;5472689;32;34025;-89
2022/12/15 10:51:56;;;;;;;80.25;35.47;;;;;;;1.46;100.00;99780.06;5464227;32;33406;-89
2022/12/15 10:54:59;;;;;;;81.60;35.22;;;;;;;1.74;100.00;99779.47;5473440;32;34723;-88
2022/12/15 10:58:13;;;;;;;84.78;36.72;;;;;;;1.56;100.00;99778.09;5470429;32;34230;-88
2022/12/15 11:01:23;;;;;;;78.28;34.55;;;;;;;1.56;100.00;99770.25;5473895;32;34732;-88
2022/12/15 11:04:31;;;;;;;92.60;37.28;;;;;;;1.53;100.00;99774.69;5512236;26;34443;-88
2022/12/15 11:07:49;;;;;;;82.32;35.05;;;;;;;1.54;100.00;99763.34;5481788;32;32548;-88
2022/12/15 11:14:24;;;;;;;80.68;35.25;;;;;;;1.83;100.00;99770.53;5496058;32;33948;-88
2022/12/15 11:17:39;;;;;;;92.37;36.80;;;;;;;2.03;100.00;99790.13;5494498;32;34765;-90
2022/12/15 11:20:54;;;;;;;86.20;36.00;;;;;;;1.93;100.00;99792.12;5493118;32;34135;-88
2022/12/15 11:24:32;;;;;;;77.03;34.28;;;;;;;2.01;100.00;99778.84;5493364;32;34367;-88
2022/12/15 11:27:39;;;;;;;79.05;34.47;;;;;;;1.83;100.00;99781.00;5494418;32;34668;-88
2022/12/15 11:30:46;;;;;;;82.90;35.40;;;;;;;1.77;100.00;99773.31;5490113;32;33868;-88
2022/12/15 11:33:53;;;;;;;83.45;36.35;;;;;;;1.90;100.00;99765.16;5487358;32;34852;-88
2022/12/15 11:37:30;;;;;;;83.62;34.85;;;;;;;1.78;100.00;99766.28;5489435;32;34593;-89
2022/12/15 11:40:40;;;;;;;71.32;30.83;;;;;;;1.88;100.00;99773.88;5474145;32;34416;-89
2022/12/15 11:43:54;;;;;;;78.15;32.97;;;;;;;1.78;100.00;99776.75;5479640;32;31998;-88
2022/12/15 11:47:02;;;;;;;83.45;32.60;;;;;;;1.80;100.00;99781.06;5495228;32;33980;-89
2022/12/15 11:50:18;;;;;;;81.68;33.40;;;;;;;1.87;100.00;99784.41;5489433;32;33981;-88
2022/12/15 11:57:08;;;;;;;76.72;33.40;;;;;;;1.93;100.00;99789.50;5464180;32;34571;-88
2022/12/15 12:00:22;;;;;;;84.10;34.78;;;;;;;2.02;100.00;99804.13;5466213;27;33091;-88
2022/12/15 12:03:40;;;;;;;80.90;34.03;;;;;;;1.74;100.00;99804.75;5499990;32;34043;-88
2022/12/15 12:06:53;;;;;;;76.68;32.75;;;;;;;1.71;100.00;99805.66;5481111;32;33764;-88
2022/12/15 12:10:29;;;;;;;83.20;33.40;;;;;;;1.79;100.00;99802.87;5489094;32;32760;-88
2022/12/15 12:13:42;;;;;;;86.30;34.30;;;;;;;1.87;100.00;99803.56;5485741;32;33917;-89
2022/12/15 12:35:36;;;;;;;81.12;34.08;;;;;;;1.67;100.00;99783.12;2276332;30;20084;-88
2022/12/15 12:38:52;;;;;;;85.90;35.20;;;;;;;1.83;100.00;99774.91;5473624;32;32916;-87
2022/12/15 12:42:20;;;;;;;86.57;35.95;;;;;;;1.93;100.00;99780.78;5527368;27;34029;-89
2022/12/15 12:45:28;;;;;;;91.55;36.42;;;;;;;1.93;100.00;99780.78;5464037;32;33689;-89
2022/12/15 12:48:34;;;;;;;93.10;37.65;;;;;;;1.97;100.00;99783.28;5460120;32;34625;-88
2022/12/15 12:51:40;;;;;;;97.55;37.33;;;;;;;1.67;100.00;99779.63;5459670;32;33479;-87
2022/12/15 12:54:58;;;;;;;94.62;37.30;;;;;;;1.70;100.00;99785.66;5470175;32;34045;-87
2022/12/15 12:58:01;;;;;;;104.93;39.03;;;;;;;1.75;100.00;99781.19;5460063;32;35034;-87
2022/12/15 13:01:10;;;;;;;87.07;36.17;;;;;;;1.85;100.00;99786.19;5466889;32;34106;-87
2022/12/15 13:04:39;;;;;;;97.43;37.72;;;;;;;1.88;100.00;99789.56;5465180;32;33697;-88
2022/12/15 13:07:53;;;;;;;96.05;38.60;;;;;;;1.98;100.00;99792.00;5465509;32;33569;-88
2022/12/15 13:11:52;;;;;;;97.18;39.45;;;;;;;1.82;100.00;99794.09;5471303;32;33980;-87
2022/12/15 13:14:57;;;;;;;99.45;37.67;;;;;;;1.87;100.00;99800.09;5480630;32;34806;-88
2022/12/15 13:18:14;;;;;;;100.62;38.53;;;;;;;1.68;100.00;99813.59;5467640;32;33808;-87
2022/12/15 13:21:42;;;;;;;97.53;39.20;;;;;;;1.71;100.00;99813.50;5465853;32;34048;-87
2022/12/15 13:24:46;;;;;;;93.30;37.70;;;;;;;1.77;100.00;99816.88;5467274;32;34495;-88
2022/12/15 13:27:56;;;;;;;105.50;38.58;;;;;;;1.75;100.00;99815.16;5456639;32;34374;-88
2022/12/15 13:31:17;;;;;;;95.97;38.42;;;;;;;1.71;100.00;99810.06;5463518;32;33840;-88
2022/12/15 13:34:42;;;;;;;103.72;38.25;;;;;;;1.55;100.00;99813.00;5469093;32;33870;-87
2022/12/15 13:37:52;;;;;;;106.90;38.47;;;;;;;1.67;100.00;99800.53;5467184;32;32227;-87
2022/12/15 13:40:54;;;;;;;98.37;37.90;;;;;;;1.68;100.00;99799.66;5471238;32;33876;-87
2022/12/15 13:43:59;;;;;;;95.25;39.15;;;;;;;1.72;100.00;99807.38;5474282;32;34233;-88
2022/12/15 13:47:11;;;;;;;90.65;37.60;;;;;;;1.68;100.00;99808.38;5451091;32;33266;-91
2022/12/15 13:50:39;;;;;;;90.68;36.63;;;;;;;1.72;100.00;99817.00;5473721;32;34087;-88
2022/12/15 13:53:46;;;;;;;92.15;37.20;;;;;;;1.53;100.00;99822.62;5448149;32;33074;-88
2022/12/15 13:57:09;;;;;;;100.90;37.92;;;;;;;1.45;100.00;99819.28;5512909;27;32704;-88
2022/12/15 14:00:20;;;;;;;101.97;38.60;;;;;;;1.45;100.00;99828.00;5492828;32;33869;-88
2022/12/15 14:03:23;;;;;;;103.72;39.03;;;;;;;1.48;100.00;99821.84;5497400;32;33893;-88
2022/12/15 15:30:54;;;;;;;97.28;38.88;;;;;;;0.98;100.00;99845.47;914586;26;21043;-88
2022/12/15 15:33:58;;;;;;;93.65;38.47;;;;;;;0.91;100.00;99821.25;5490990;32;33211;-88
2022/12/15 15:37:04;;;;;;;97.30;38.97;;;;;;;0.84;100.00;99830.94;5505516;32;34006;-88
2022/12/15 15:40:11;;;;;;;93.55;39.15;;;;;;;0.92;100.00;99828.19;5484879;32;34877;-88
2022/12/15 15:43:15;;;;;;;98.78;38.80;;;;;;;0.86;100.00;99817.84;5500377;32;33643;-88
2022/12/15 15:46:24;;;;;;;94.20;36.85;;;;;;;0.88;100.00;99824.78;5493606;32;33373;-88
2022/12/15 15:49:27;;;;;;;98.15;39.53;;;;;;;0.92;100.00;99815.12;5486365;32;32640;-88
2022/12/15 15:52:30;;;;;;;89.72;37.40;;;;;;;0.96;100.00;99811.56;5495861;32;33956;-92
2022/12/15 15:55:34;;;;;;;96.85;39.40;;;;;;;1.02;100.00;99808.84;5500986;32;35023;-92
2022/12/15 15:58:42;;;;;;;91.57;38.78;;;;;;;0.88;100.00;99798.66;5512725;32;35039;-91
2022/12/15 16:01:57;;;;;;;97.30;38.83;;;;;;;0.90;100.00;99817.75;5512695;32;35556;-88
2022/12/15 16:05:01;;;;;;;88.53;38.60;;;;;;;0.89;100.00;99815.16;5512395;32;33126;-88
2022/12/15 16:08:04;;;;;;;86.43;36.97;;;;;;;0.86;100.00;99810.84;5514409;32;33506;-88
2022/12/15 16:11:10;;;;;;;85.97;36.85;;;;;;;0.82;100.00;99804.00;5510955;32;34018;-88
2022/12/15 16:14:16;;;;;;;81.32;36.70;;;;;;;0.77;100.00;99792.78;5511054;32;34470;-89
2022/12/15 16:17:19;;;;;;;83.57;36.80;;;;;;;0.79;100.00;99807.53;5525392;32;34274;-89
2022/12/15 16:20:25;;;;;;;90.18;38.97;;;;;;;0.96;100.00;99818.53;5506004;32;33986;-89
2022/12/15 16:23:28;;;;;;;89.95;36.28;;;;;;;0.93;100.00;99809.87;5511184;32;34122;-88
2022/12/15 16:26:32;;;;;;;82.32;37.30;;;;;;;0.89;100.00;99821.25;5511368;32;34130;-88
